36TA weather

G W Heliport
San Antonio, Texas, United States

Public forecast

Using degrees Fahrenheit for public forecast. Weather courtesy of forecast.io.

Closest aviation weather report (METAR) to G W Heliport

Closest report is San Antonio International Airport, 1.7 nm (3.1 km) SE. Retrieved 2020/08/06 11:51 UTC (34 minutes ago):

KSAT 061151Z 18008KT 10SM BKN013 OVC028 26/23 A3000 RMK AO2 SLP139 T02560233 10272 20250 53002

Closest aviation forecast (TAF) to G W Heliport

Closest forecast is San Antonio International Airport, 1.7 nm (3.1 km) SE. Retrieved 2020/08/06 12:42 UTC (0 seconds ago):

TAF KSAT 061138Z 0612/0718 18007KT P6SM BKN011 FM061500 18009KT P6SM FEW035 FM061900 14012KT P6SM FEW050 FM070800 17007KT P6SM BKN011 FM071600 17010KT P6SM SCT050